createdAt,value
2017-09-13T00:00:06.750Z,3.97
2017-09-13T00:02:35.118Z,5.40
2017-09-13T00:05:03.547Z,5.50
2017-09-13T00:07:32.484Z,2.53
2017-09-13T00:10:00.855Z,3.17
2017-09-13T00:12:29.240Z,2.93
2017-09-13T00:14:57.849Z,4.33
2017-09-13T00:17:27.071Z,5.40
2017-09-13T00:19:55.443Z,5.00
2017-09-13T00:22:23.876Z,3.57
2017-09-13T00:24:53.177Z,5.00
2017-09-13T00:27:21.948Z,2.00
2017-09-13T00:29:50.563Z,9.33
2017-09-13T00:32:18.975Z,2.97
2017-09-13T00:34:47.385Z,6.23
2017-09-13T00:37:15.793Z,8.70
2017-09-13T00:39:44.168Z,5.50
2017-09-13T00:42:12.651Z,10.80
2017-09-13T00:44:41.647Z,4.17
2017-09-13T00:47:10.023Z,5.73
2017-09-13T00:49:38.413Z,5.23
2017-09-13T00:52:08.115Z,10.57
2017-09-13T00:54:36.583Z,4.67
2017-09-13T00:57:05.026Z,1.90
2017-09-13T00:59:33.576Z,7.00
2017-09-13T01:02:02.791Z,7.83
2017-09-13T01:04:31.953Z,10.53
2017-09-13T01:07:00.482Z,2.87
2017-09-13T01:09:29.115Z,9.87
2017-09-13T01:11:57.502Z,4.43
2017-09-13T01:14:25.926Z,5.80
2017-09-13T01:16:54.310Z,2.20
2017-09-13T01:19:22.703Z,3.13
2017-09-13T01:21:51.147Z,6.00
2017-09-13T01:24:20.289Z,7.27
2017-09-13T01:26:48.695Z,4.93
2017-09-13T01:29:17.746Z,5.57
2017-09-13T01:31:46.137Z,4.50
2017-09-13T01:34:14.523Z,2.53
2017-09-13T01:36:43.018Z,4.87
2017-09-13T01:39:11.418Z,5.53
2017-09-13T01:41:40.570Z,9.63
2017-09-13T01:44:09.019Z,12.93
2017-09-13T01:46:37.512Z,4.37
2017-09-13T01:49:05.915Z,8.13
2017-09-13T01:51:34.481Z,9.00
2017-09-13T01:54:02.973Z,7.07
2017-09-13T01:56:31.353Z,10.33
2017-09-13T01:58:59.753Z,8.90
2017-09-13T02:01:28.191Z,13.50
2017-09-13T02:03:56.565Z,8.13
2017-09-13T02:06:25.405Z,12.77
2017-09-13T02:08:53.859Z,4.23
2017-09-13T02:11:22.303Z,6.67
2017-09-13T02:13:51.506Z,12.47
2017-09-13T02:16:19.996Z,12.90
2017-09-13T02:18:48.364Z,3.83
2017-09-13T02:21:16.774Z,3.33
2017-09-13T02:23:45.157Z,7.27
2017-09-13T02:26:13.544Z,3.20
2017-09-13T02:28:41.948Z,7.23
2017-09-13T02:31:10.909Z,17.37
2017-09-13T02:33:39.277Z,10.50
2017-09-13T02:36:07.713Z,6.33
2017-09-13T02:38:36.100Z,5.17
2017-09-13T02:41:05.247Z,4.90
2017-09-13T02:43:34.081Z,4.97
2017-09-13T02:46:03.216Z,6.03
2017-09-13T02:48:31.652Z,24.87
2017-09-13T02:51:00.841Z,5.20
2017-09-13T02:53:29.217Z,3.17
2017-09-13T02:55:57.592Z,10.83
2017-09-13T02:58:26.000Z,10.47
2017-09-13T03:00:54.396Z,4.30
2017-09-13T03:03:22.783Z,4.17
2017-09-13T03:05:51.181Z,15.13
2017-09-13T03:08:19.542Z,9.63
2017-09-13T03:10:47.961Z,10.97
2017-09-13T03:13:16.586Z,6.73
2017-09-13T03:15:44.957Z,3.87
2017-09-13T03:18:14.108Z,3.43
2017-09-13T03:20:42.712Z,10.43
2017-09-13T03:23:11.090Z,5.80
2017-09-13T03:25:39.510Z,11.10
2017-09-13T03:28:07.977Z,4.67
2017-09-13T03:30:37.117Z,12.17
2017-09-13T03:33:06.077Z,2.93
2017-09-13T03:35:34.628Z,3.80
2017-09-13T03:38:03.066Z,6.10
2017-09-13T03:40:31.502Z,3.60
2017-09-13T03:43:00.983Z,5.17
2017-09-13T03:45:29.585Z,10.07
2017-09-13T03:47:58.728Z,4.80
2017-09-13T03:50:27.182Z,10.43
2017-09-13T03:52:55.584Z,9.30
2017-09-13T03:55:23.952Z,6.07
2017-09-13T03:57:52.520Z,7.63
2017-09-13T04:00:20.912Z,15.00
2017-09-13T04:02:49.413Z,3.70
2017-09-13T04:05:18.152Z,5.40
2017-09-13T04:07:47.292Z,5.27
2017-09-13T04:10:15.669Z,11.53
2017-09-13T04:12:44.874Z,7.83
2017-09-13T04:15:13.207Z,2.17
2017-09-13T04:17:41.581Z,5.03
2017-09-13T04:20:10.239Z,1.50
2017-09-13T04:22:38.564Z,2.70
2017-09-13T04:25:07.669Z,6.70
2017-09-13T04:27:36.105Z,5.97
2017-09-13T04:30:04.486Z,7.30
2017-09-13T04:32:32.861Z,6.13
2017-09-13T04:35:01.417Z,7.07
2017-09-13T04:37:29.793Z,9.30
2017-09-13T04:39:58.203Z,29.13
2017-09-13T04:42:26.641Z,8.00
2017-09-13T04:44:55.023Z,4.27
2017-09-13T04:47:23.397Z,20.23
2017-09-13T04:49:51.841Z,7.63
2017-09-13T04:52:21.205Z,13.70
2017-09-13T04:54:49.616Z,11.83
2017-09-13T04:57:19.190Z,11.00
2017-09-13T04:59:47.613Z,6.37
2017-09-13T05:02:16.742Z,9.03
2017-09-13T05:04:45.194Z,8.60
2017-09-13T05:07:14.380Z,18.30
2017-09-13T05:09:43.569Z,13.13
2017-09-13T05:12:13.063Z,14.73
2017-09-13T05:14:41.441Z,9.30
2017-09-13T05:17:09.950Z,17.70
2017-09-13T05:19:39.171Z,22.57
2017-09-13T05:22:07.653Z,7.13
2017-09-13T05:24:36.062Z,19.33
2017-09-13T05:27:04.531Z,3.70
2017-09-13T05:29:33.016Z,3.33
2017-09-13T05:32:01.437Z,16.23
2017-09-13T05:34:30.706Z,7.83
2017-09-13T05:36:59.668Z,13.20
2017-09-13T05:39:28.157Z,8.83
2017-09-13T05:41:57.100Z,7.50
2017-09-13T05:44:26.292Z,7.07
2017-09-13T05:46:55.450Z,3.97
2017-09-13T05:49:23.988Z,4.27
2017-09-13T05:51:54.101Z,8.13
2017-09-13T05:54:23.554Z,13.10
2017-09-13T05:56:53.182Z,6.00
2017-09-13T05:59:21.568Z,7.10
2017-09-13T06:01:49.926Z,9.10
2017-09-13T06:04:18.621Z,7.50
2017-09-13T06:06:47.106Z,7.30
2017-09-13T06:09:15.474Z,2.30
2017-09-13T06:11:43.897Z,5.30
2017-09-13T06:14:13.070Z,10.23
2017-09-13T06:16:41.445Z,8.40
2017-09-13T06:19:10.147Z,6.20
2017-09-13T06:21:38.565Z,14.93
2017-09-13T06:24:07.037Z,5.70
2017-09-13T06:26:35.698Z,4.93
2017-09-13T06:29:04.896Z,2.87
2017-09-13T06:31:34.080Z,2.20
2017-09-13T06:34:02.610Z,7.63
2017-09-13T06:36:31.018Z,6.03
2017-09-13T06:38:59.816Z,11.53
2017-09-13T06:41:28.250Z,11.43
2017-09-13T06:43:56.684Z,6.03
2017-09-13T06:46:25.080Z,4.07
2017-09-13T06:48:53.617Z,13.67
2017-09-13T06:51:22.946Z,3.50
2017-09-13T06:53:51.372Z,3.37
2017-09-13T06:56:20.114Z,2.03
2017-09-13T06:58:48.517Z,2.00
2017-09-13T07:01:16.925Z,1.90
2017-09-13T07:03:45.337Z,2.30
2017-09-13T07:06:13.724Z,0.93
2017-09-13T07:08:42.282Z,1.17
2017-09-13T07:11:10.768Z,1.70
2017-09-13T07:13:39.924Z,2.93
2017-09-13T07:16:08.369Z,3.50
2017-09-13T07:18:37.751Z,2.50
2017-09-13T07:21:06.208Z,3.03
2017-09-13T07:23:34.643Z,2.27
2017-09-13T07:26:03.227Z,5.23
2017-09-13T07:28:31.655Z,5.30
2017-09-13T07:31:00.066Z,1.67
2017-09-13T07:33:28.849Z,1.47
2017-09-13T07:35:58.429Z,1.53
2017-09-13T07:38:26.910Z,1.53
2017-09-13T07:40:56.800Z,1.47
2017-09-13T07:43:26.085Z,1.87
2017-09-13T07:45:55.249Z,0.60
2017-09-13T07:48:25.569Z,2.40
2017-09-13T07:50:54.018Z,3.70
2017-09-13T07:53:23.149Z,2.30
2017-09-13T07:55:51.624Z,1.27
2017-09-13T07:58:21.064Z,1.47
2017-09-13T08:00:49.514Z,0.70
2017-09-13T08:03:17.953Z,3.47
2017-09-13T08:05:46.371Z,2.97
2017-09-13T08:08:14.797Z,2.00
2017-09-13T08:10:44.403Z,1.83
2017-09-13T08:13:12.795Z,0.90
2017-09-13T08:15:41.206Z,0.53
2017-09-13T08:18:10.082Z,1.30
2017-09-13T08:20:42.468Z,2.27
2017-09-13T08:23:11.026Z,3.17
2017-09-13T08:25:39.605Z,1.23
2017-09-13T08:28:08.812Z,0.50
2017-09-13T08:30:37.203Z,2.13
2017-09-13T08:33:05.646Z,0.70
2017-09-13T08:35:34.874Z,3.80
2017-09-13T08:38:03.337Z,4.77
2017-09-13T08:40:32.015Z,1.07
2017-09-13T08:43:02.109Z,3.13
2017-09-13T08:45:30.574Z,2.30
2017-09-13T08:47:59.020Z,2.10
2017-09-13T08:50:27.505Z,1.00
2017-09-13T08:52:55.917Z,4.23
2017-09-13T08:55:26.625Z,1.07
2017-09-13T08:57:55.036Z,1.00
2017-09-13T09:00:24.093Z,2.10
2017-09-13T09:02:52.529Z,1.03
2017-09-13T09:05:21.760Z,0.73
2017-09-13T09:07:50.146Z,0.80
2017-09-13T09:10:21.712Z,2.10
2017-09-13T09:12:50.175Z,0.70
2017-09-13T09:15:18.567Z,0.70
2017-09-13T09:17:47.329Z,2.93
2017-09-13T09:20:15.762Z,0.60
2017-09-13T09:22:45.129Z,0.80
2017-09-13T09:25:13.962Z,2.30
2017-09-13T09:27:42.346Z,2.00
2017-09-13T09:30:10.783Z,1.03
2017-09-13T09:32:39.203Z,1.10
2017-09-13T09:35:07.584Z,0.53
2017-09-13T09:37:36.074Z,2.03
2017-09-13T09:40:05.358Z,0.70
2017-09-13T09:42:34.676Z,0.90
2017-09-13T09:45:03.749Z,2.07
2017-09-13T09:47:32.333Z,2.33
2017-09-13T09:50:00.936Z,3.07
2017-09-13T09:52:29.333Z,1.87
2017-09-13T09:54:58.088Z,1.73
2017-09-13T09:57:26.485Z,1.70
2017-09-13T09:59:55.764Z,1.33
2017-09-13T10:02:24.347Z,1.33
2017-09-13T10:04:52.747Z,0.93
2017-09-13T10:07:21.948Z,3.43
2017-09-13T10:09:51.296Z,1.20
2017-09-13T10:12:20.037Z,3.10
2017-09-13T10:14:49.619Z,0.93
2017-09-13T10:17:18.042Z,1.43
2017-09-13T10:19:48.368Z,1.10
2017-09-13T10:22:16.733Z,1.60
2017-09-13T10:24:45.941Z,0.60
2017-09-13T10:27:17.179Z,1.50
2017-09-13T10:29:48.590Z,4.03
2017-09-13T10:32:17.025Z,1.00
2017-09-13T10:34:45.469Z,0.47
2017-09-13T10:37:14.886Z,2.30
2017-09-13T10:39:44.074Z,0.50
2017-09-13T10:42:13.279Z,1.20
2017-09-13T10:44:42.659Z,3.27
2017-09-13T10:47:11.575Z,0.60
2017-09-13T10:49:40.779Z,1.63
2017-09-13T10:52:09.658Z,1.90
2017-09-13T10:54:39.278Z,0.80
2017-09-13T10:57:08.456Z,1.53
2017-09-13T10:59:39.123Z,2.97
2017-09-13T11:02:07.570Z,1.83
2017-09-13T11:04:36.731Z,5.23
2017-09-13T11:07:05.518Z,2.90
2017-09-13T11:09:33.906Z,3.57
2017-09-13T11:12:02.296Z,1.17
2017-09-13T11:14:30.934Z,3.00
2017-09-13T11:16:59.403Z,3.20
2017-09-13T11:19:27.841Z,2.77
2017-09-13T11:21:56.363Z,2.53
2017-09-13T11:24:26.233Z,1.97
2017-09-13T11:26:55.847Z,5.40
2017-09-13T11:29:24.558Z,4.20
2017-09-13T11:31:53.918Z,2.40
2017-09-13T11:34:22.345Z,2.23
2017-09-13T11:36:51.558Z,3.03
2017-09-13T11:39:22.541Z,6.17
2017-09-13T11:41:51.528Z,1.77
2017-09-13T11:44:20.017Z,6.13
2017-09-13T11:46:48.428Z,7.60
2017-09-13T11:49:18.590Z,3.20
2017-09-13T11:51:47.436Z,3.23
2017-09-13T11:54:16.659Z,6.80
2017-09-13T11:56:45.628Z,3.63
2017-09-13T11:59:14.873Z,7.30
2017-09-13T12:01:43.253Z,4.40
2017-09-13T12:04:13.765Z,8.80
2017-09-13T12:06:43.380Z,2.47
2017-09-13T12:09:11.787Z,10.13
2017-09-13T12:11:41.012Z,12.23
2017-09-13T12:14:10.269Z,4.93
2017-09-13T12:16:39.842Z,3.80
2017-09-13T12:19:09.628Z,6.37
2017-09-13T12:21:39.114Z,3.20
2017-09-13T12:24:07.517Z,2.33
2017-09-13T12:26:35.932Z,3.27
2017-09-13T12:29:05.191Z,7.80
2017-09-13T12:31:34.351Z,2.70
2017-09-13T12:34:02.752Z,5.10
2017-09-13T12:36:31.877Z,6.73
2017-09-13T12:39:00.289Z,3.37
2017-09-13T12:41:28.684Z,2.80
2017-09-13T12:43:57.941Z,8.63
2017-09-13T12:46:29.158Z,11.30
2017-09-13T12:48:59.001Z,4.93
2017-09-13T12:51:28.472Z,4.97
2017-09-13T12:53:57.949Z,6.83
2017-09-13T12:56:26.675Z,4.17
2017-09-13T12:58:55.808Z,1.20
2017-09-13T13:01:24.332Z,13.67
2017-09-13T13:03:53.115Z,2.73
2017-09-13T13:06:21.543Z,2.30
2017-09-13T13:08:50.287Z,3.63
2017-09-13T13:11:19.719Z,8.73
2017-09-13T13:13:48.973Z,0.70
2017-09-13T13:16:17.403Z,1.03
2017-09-13T13:18:47.086Z,6.40
2017-09-13T13:21:15.496Z,5.63
2017-09-13T13:23:44.828Z,6.00
2017-09-13T13:26:13.344Z,4.20
2017-09-13T13:28:41.874Z,0.50
2017-09-13T13:31:10.382Z,1.57
2017-09-13T13:33:39.058Z,2.30
2017-09-13T13:36:08.207Z,3.43
2017-09-13T13:38:37.405Z,3.20
2017-09-13T13:41:06.729Z,2.60
2017-09-13T13:43:36.155Z,1.00
2017-09-13T13:46:06.327Z,6.83
2017-09-13T13:48:34.805Z,1.13
2017-09-13T13:51:04.075Z,5.90
2017-09-13T13:53:33.617Z,1.83
2017-09-13T13:56:03.100Z,1.20
2017-09-13T13:58:31.543Z,1.20
2017-09-13T14:01:00.060Z,3.33
2017-09-13T14:03:30.040Z,2.63
2017-09-13T14:05:58.447Z,1.77
2017-09-13T14:08:28.140Z,1.73
2017-09-13T14:10:56.542Z,5.93
2017-09-13T14:13:25.094Z,3.80
2017-09-13T14:15:53.618Z,4.00
2017-09-13T14:18:22.288Z,5.27
2017-09-13T14:20:51.374Z,2.53
2017-09-13T14:23:19.825Z,4.70
2017-09-13T14:25:52.759Z,6.30
2017-09-13T14:28:21.990Z,4.80
2017-09-13T14:30:50.393Z,17.77
2017-09-13T14:33:19.761Z,6.47
2017-09-13T14:35:48.933Z,14.07
2017-09-13T14:38:20.347Z,7.30
2017-09-13T14:40:48.743Z,7.70
2017-09-13T14:43:17.147Z,7.27
2017-09-13T14:45:47.042Z,7.50
2017-09-13T14:48:16.380Z,5.03
2017-09-13T14:50:45.635Z,9.43
2017-09-13T14:53:14.409Z,15.17
2017-09-13T14:55:43.931Z,10.13
2017-09-13T14:58:12.368Z,9.57
2017-09-13T15:00:41.340Z,15.27
2017-09-13T15:03:12.308Z,11.10
2017-09-13T15:05:40.790Z,7.77
2017-09-13T15:08:09.251Z,9.37
2017-09-13T15:10:37.720Z,17.23
2017-09-13T15:13:06.196Z,15.43
2017-09-13T15:15:34.798Z,6.73
2017-09-13T15:18:03.246Z,10.90
2017-09-13T15:20:32.492Z,13.50
2017-09-13T15:23:01.254Z,7.60
2017-09-13T15:25:30.482Z,7.37
2017-09-13T15:27:58.871Z,8.40
2017-09-13T15:30:27.358Z,13.73
2017-09-13T15:32:59.554Z,16.97
2017-09-13T15:35:28.320Z,11.63
2017-09-13T15:37:56.888Z,12.57
2017-09-13T15:40:25.302Z,14.87
2017-09-13T15:42:53.710Z,12.90
2017-09-13T15:45:23.222Z,13.20
2017-09-13T15:47:51.677Z,10.90
2017-09-13T15:50:21.626Z,12.73
2017-09-13T15:52:50.443Z,14.20
2017-09-13T15:55:18.873Z,10.90
2017-09-13T15:57:48.135Z,9.53
2017-09-13T16:00:17.184Z,14.87
2017-09-13T16:02:45.606Z,13.80
2017-09-13T16:05:13.984Z,9.13
2017-09-13T16:07:43.228Z,11.33
2017-09-13T16:10:12.324Z,9.30
2017-09-13T16:12:41.679Z,10.70
2017-09-13T16:15:10.157Z,15.80
2017-09-13T16:17:38.673Z,17.23
2017-09-13T16:20:07.083Z,8.53
2017-09-13T16:22:36.424Z,17.17
2017-09-13T16:25:04.912Z,11.53
2017-09-13T16:27:34.145Z,14.33
2017-09-13T16:30:03.385Z,10.40
2017-09-13T16:32:31.893Z,10.23
2017-09-13T16:35:00.476Z,9.40
2017-09-13T16:37:29.464Z,13.93
2017-09-13T16:39:57.929Z,25.50
2017-09-13T16:42:26.399Z,13.80
2017-09-13T16:44:55.141Z,7.33
2017-09-13T16:47:24.359Z,8.40
2017-09-13T16:49:53.530Z,10.03
2017-09-13T16:52:22.740Z,12.13
2017-09-13T16:54:51.181Z,12.33
2017-09-13T16:57:21.133Z,12.80
2017-09-13T16:59:51.492Z,13.60
2017-09-13T17:02:19.961Z,11.47
2017-09-13T17:04:48.363Z,10.60
2017-09-13T17:07:16.863Z,14.93
2017-09-13T17:09:45.992Z,11.73
2017-09-13T17:12:14.377Z,13.00
2017-09-13T17:14:43.708Z,32.27
2017-09-13T17:17:12.148Z,12.77
2017-09-13T17:19:40.589Z,14.90
2017-09-13T17:22:09.010Z,10.30
2017-09-13T17:24:37.409Z,16.37
2017-09-13T17:27:06.626Z,15.43
2017-09-13T17:29:35.113Z,10.87
2017-09-13T17:32:03.534Z,23.27
2017-09-13T17:34:31.967Z,17.73
2017-09-13T17:37:00.570Z,17.43
2017-09-13T17:39:30.223Z,9.90
2017-09-13T17:41:59.520Z,22.93
2017-09-13T17:44:28.409Z,14.13
2017-09-13T17:46:56.947Z,11.20
2017-09-13T17:49:25.428Z,16.77
2017-09-13T17:51:54.064Z,23.47
2017-09-13T17:54:23.207Z,14.53
2017-09-13T17:56:51.596Z,27.83
2017-09-13T17:59:20.230Z,18.83
2017-09-13T18:01:48.714Z,12.07
2017-09-13T18:04:17.944Z,6.60
2017-09-13T18:06:46.809Z,7.73
2017-09-13T18:09:15.398Z,14.33
2017-09-13T18:11:43.844Z,14.57
2017-09-13T18:14:12.523Z,10.80
2017-09-13T18:16:41.193Z,15.23
2017-09-13T18:19:09.575Z,9.27
2017-09-13T18:21:38.158Z,19.20
2017-09-13T18:24:06.581Z,10.63
2017-09-13T18:26:35.836Z,15.97
2017-09-13T18:29:04.311Z,12.77
2017-09-13T18:31:32.825Z,14.33
2017-09-13T18:34:02.206Z,9.67
2017-09-13T18:36:32.156Z,24.83
2017-09-13T18:39:01.376Z,13.07
2017-09-13T18:41:29.935Z,19.43
2017-09-13T18:43:59.450Z,11.17
2017-09-13T18:46:27.871Z,14.70
2017-09-13T18:48:56.270Z,16.13
2017-09-13T18:51:24.780Z,17.40
2017-09-13T18:53:53.952Z,16.97
2017-09-13T18:56:22.647Z,14.43
2017-09-13T18:58:51.454Z,13.00
2017-09-13T19:01:20.660Z,15.23
2017-09-13T19:03:49.412Z,16.90
2017-09-13T19:06:18.145Z,17.47
2017-09-13T19:08:46.557Z,18.23
2017-09-13T19:11:14.963Z,17.83
2017-09-13T19:13:43.472Z,19.07
2017-09-13T19:16:11.922Z,23.27
2017-09-13T19:18:40.323Z,14.37
2017-09-13T19:21:09.582Z,20.40
2017-09-13T19:23:38.817Z,15.03
2017-09-13T19:26:07.269Z,15.87
2017-09-13T19:28:35.841Z,20.50
2017-09-13T19:31:04.656Z,15.13
2017-09-13T19:33:33.906Z,7.47
2017-09-13T19:36:02.325Z,15.87
2017-09-13T19:38:30.698Z,6.83
2017-09-13T19:40:59.092Z,13.53
2017-09-13T19:43:28.503Z,23.70
2017-09-13T19:45:56.915Z,17.63
2017-09-13T19:48:25.295Z,13.07
2017-09-13T19:50:53.745Z,13.53
2017-09-13T19:53:22.937Z,6.73
2017-09-13T19:55:51.366Z,12.90
2017-09-13T19:58:19.819Z,23.90
2017-09-13T20:00:48.232Z,10.43
2017-09-13T20:03:16.628Z,13.27
2017-09-13T20:05:46.123Z,7.73
2017-09-13T20:08:14.527Z,17.30
2017-09-13T20:10:42.906Z,15.33
2017-09-13T20:13:11.490Z,21.37
2017-09-13T20:15:39.876Z,24.30
2017-09-13T20:18:09.021Z,21.20
2017-09-13T20:20:37.632Z,20.07
2017-09-13T20:23:06.065Z,18.83
2017-09-13T20:25:34.458Z,14.33
2017-09-13T20:28:02.961Z,12.33
2017-09-13T20:30:31.354Z,12.13
2017-09-13T20:32:59.751Z,22.13
2017-09-13T20:35:28.200Z,7.63
2017-09-13T20:37:56.614Z,17.53
2017-09-13T20:40:25.574Z,15.33
2017-09-13T20:42:54.897Z,18.03
2017-09-13T20:45:23.315Z,18.40
2017-09-13T20:47:51.702Z,11.03
2017-09-13T20:50:20.102Z,12.97
2017-09-13T20:52:48.491Z,15.23
2017-09-13T20:55:16.870Z,26.23
2017-09-13T20:57:45.364Z,15.60
2017-09-13T21:00:13.756Z,25.00
2017-09-13T21:02:42.120Z,16.00
2017-09-13T21:05:11.326Z,16.60
2017-09-13T21:07:39.769Z,17.17
2017-09-13T21:10:08.186Z,14.20
2017-09-13T21:12:36.873Z,19.10
2017-09-13T21:15:05.240Z,20.63
2017-09-13T21:17:33.625Z,22.20
2017-09-13T21:20:02.139Z,16.97
2017-09-13T21:22:31.608Z,13.03
2017-09-13T21:25:00.032Z,22.37
2017-09-13T21:27:28.474Z,20.73
2017-09-13T21:29:56.853Z,12.30
2017-09-13T21:32:25.247Z,12.03
2017-09-13T21:34:53.690Z,11.60
2017-09-13T21:37:22.082Z,17.20
2017-09-13T21:39:50.455Z,14.40
2017-09-13T21:42:19.862Z,11.33
2017-09-13T21:44:48.230Z,4.90
2017-09-13T21:47:16.748Z,11.47
2017-09-13T21:49:45.202Z,11.13
2017-09-13T21:52:13.580Z,9.60
2017-09-13T21:54:41.948Z,16.37
2017-09-13T21:57:10.515Z,17.17
2017-09-13T21:59:38.917Z,13.83
2017-09-13T22:02:07.327Z,9.13
2017-09-13T22:04:35.992Z,3.87
2017-09-13T22:07:04.376Z,5.13
2017-09-13T22:09:33.327Z,11.20
2017-09-13T22:12:01.894Z,6.67
2017-09-13T22:14:30.275Z,11.23
2017-09-13T22:16:58.632Z,10.70
2017-09-13T22:19:27.964Z,7.70
2017-09-13T22:21:56.342Z,13.03
2017-09-13T22:24:24.726Z,10.97
2017-09-13T22:26:53.116Z,7.27
2017-09-13T22:29:21.509Z,5.47
2017-09-13T22:31:49.903Z,15.70
2017-09-13T22:34:18.329Z,6.40
2017-09-13T22:36:46.756Z,9.13
2017-09-13T22:39:15.112Z,9.93
2017-09-13T22:41:43.749Z,2.53
2017-09-13T22:44:12.882Z,11.53
2017-09-13T22:46:41.244Z,6.90
2017-09-13T22:49:09.800Z,5.23
2017-09-13T22:51:38.975Z,4.50
2017-09-13T22:54:07.390Z,2.03
2017-09-13T22:56:35.941Z,8.40
2017-09-13T22:59:04.294Z,7.90
2017-09-13T23:01:32.878Z,4.03
2017-09-13T23:04:01.417Z,8.53
2017-09-13T23:06:30.542Z,8.10
2017-09-13T23:08:58.922Z,1.90
2017-09-13T23:11:27.756Z,4.30
2017-09-13T23:13:56.139Z,1.43
2017-09-13T23:16:24.504Z,5.20
2017-09-13T23:18:52.994Z,2.60
2017-09-13T23:21:21.370Z,16.70
2017-09-13T23:23:49.741Z,2.30
2017-09-13T23:26:18.428Z,7.00
2017-09-13T23:28:46.809Z,2.73
2017-09-13T23:31:15.255Z,3.07
2017-09-13T23:33:43.703Z,6.97
2017-09-13T23:36:12.086Z,9.20
2017-09-13T23:38:41.262Z,4.43
2017-09-13T23:41:10.028Z,3.27
2017-09-13T23:43:38.415Z,31.80
2017-09-13T23:46:06.795Z,3.37
2017-09-13T23:48:35.193Z,3.90
2017-09-13T23:51:03.615Z,4.07
2017-09-13T23:53:32.003Z,2.67
2017-09-13T23:56:00.591Z,3.30
2017-09-13T23:58:28.953Z,4.33
